Time;durP1;ratioP1;P1;durP2;ratioP2;P2;SDS_P1;SDS_P2;PMS_P1;PMS_P2;Temp;Humidity;BMP_temperature;BMP_pressure;BME280_temperature;BME280_humidity;BME280_pressure;Samples;Min_cycle;Max_cycle;Signal;HPM_P1;HPM_P2
2023/12/10 00:01:17;;;;;;;5.13;1.50;;;21.40;65.50;;;;;;5074366;28;20056;-25
2023/12/10 00:03:44;;;;;;;5.93;1.50;;;21.40;66.30;;;;;;5074307;28;20129;-25
2023/12/10 00:06:11;;;;;;;3.45;1.65;;;;;;;;;;5072570;28;20041;-25
2023/12/10 00:08:38;;;;;;;5.03;1.73;;;21.30;66.30;;;;;;5062287;28;20045;-25
2023/12/10 00:11:06;;;;;;;3.53;1.70;;;20.50;64.50;;;;;;5074500;28;20057;-26
2023/12/10 00:13:33;;;;;;;4.10;1.83;;;20.60;65.20;;;;;;5074281;28;20078;-25
2023/12/10 00:16:00;;;;;;;4.28;2.13;;;;;;;;;;5073606;28;20516;-26
2023/12/10 00:18:27;;;;;;;4.38;1.63;;;21.80;63.30;;;;;;5074431;28;20049;-25
2023/12/10 00:20:55;;;;;;;4.60;1.95;;;;;;;;;;5074189;28;20433;-27
2023/12/10 00:23:22;;;;;;;4.43;1.80;;;21.70;65.70;;;;;;5072374;28;20045;-30
2023/12/10 00:25:49;;;;;;;5.45;1.90;;;;;;;;;;5072102;28;20044;-31
2023/12/10 00:28:18;;;;;;;5.53;1.90;;;20.50;66.10;;;;;;5073332;28;20056;-29
2023/12/10 00:30:47;;;;;;;6.20;1.90;;;;;;;;;;5073776;28;20058;-29
2023/12/10 00:33:15;;;;;;;4.65;1.90;;;20.70;65.40;;;;;;5074059;28;20444;-33
2023/12/10 00:35:42;;;;;;;3.88;1.67;;;20.10;65.90;;;;;;5073876;28;20057;-31
2023/12/10 00:38:09;;;;;;;5.93;2.10;;;;;;;;;;5073326;28;20048;-27
2023/12/10 00:40:36;;;;;;;3.63;1.65;;;20.70;65.60;;;;;;5057265;28;20053;-30
2023/12/10 00:43:03;;;;;;;7.82;2.20;;;;;;;;;;5053444;28;20403;-27
2023/12/10 00:45:32;;;;;;;6.10;2.10;;;20.20;47.60;;;;;;5053235;28;20088;-30
2023/12/10 00:47:59;;;;;;;3.83;1.70;;;;;;;;;;5053875;28;20410;-27
2023/12/10 00:50:26;;;;;;;5.50;1.80;;;20.20;65.60;;;;;;5053462;28;20059;-34
2023/12/10 00:52:53;;;;;;;4.22;1.75;;;;;;;;;;5067599;28;20048;-28
2023/12/10 00:55:21;;;;;;;4.75;2.20;;;19.80;65.90;;;;;;5053385;28;20052;-29
2023/12/10 00:57:48;;;;;;;5.82;2.00;;;;;;;;;;5053338;28;20056;-27
2023/12/10 01:00:16;;;;;;;4.65;1.60;;;20.50;50.60;;;;;;5053473;28;20057;-33
2023/12/10 01:02:44;;;;;;;5.05;2.03;;;20.70;60.80;;;;;;5053286;28;20041;-28
2023/12/10 01:05:11;;;;;;;5.72;2.42;;;20.00;65.80;;;;;;5053401;28;20053;-30
2023/12/10 01:07:38;;;;;;;5.00;2.22;;;19.50;48.50;;;;;;5052832;28;20057;-28
2023/12/10 01:10:05;;;;;;;4.82;1.88;;;19.60;64.80;;;;;;5053322;28;20044;-30
2023/12/10 01:12:35;;;;;;;4.88;2.17;;;21.20;59.70;;;;;;5054092;28;20053;-28
2023/12/10 01:15:03;;;;;;;6.03;2.17;;;;;;;;;;5053275;28;20090;-27
2023/12/10 01:17:30;;;;;;;4.25;1.90;;;;;;;;;;5052882;28;20444;-26
2023/12/10 01:20:00;;;;;;;5.82;2.20;;;19.50;65.90;;;;;;5053090;28;20060;-28
2023/12/10 01:22:27;;;;;;;5.15;2.22;;;20.50;58.90;;;;;;5052763;28;20049;-28
2023/12/10 01:24:54;;;;;;;4.78;2.00;;;;;;;;;;5052904;28;20516;-28
2023/12/10 01:27:21;;;;;;;5.78;2.03;;;20.30;59.30;;;;;;5052724;28;20049;-29
2023/12/10 01:29:48;;;;;;;4.13;1.85;;;;;;;;;;5053904;28;20059;-29
2023/12/10 01:32:15;;;;;;;3.83;1.92;;;20.30;65.90;;;;;;5052934;28;20053;-29
2023/12/10 01:34:42;;;;;;;5.65;2.00;;;19.70;66.30;;;;;;5052602;28;20087;-29
2023/12/10 01:37:10;;;;;;;6.45;2.38;;;19.90;65.00;;;;;;5062826;28;20051;-30
2023/12/10 01:39:37;;;;;;;5.22;1.90;;;19.40;66.50;;;;;;5072285;28;20064;-30
2023/12/10 01:42:04;;;;;;;4.35;1.80;;;19.40;66.30;;;;;;5072765;28;20374;-29
2023/12/10 01:44:32;;;;;;;4.07;1.80;;;20.00;62.60;;;;;;5072156;28;20509;-27
2023/12/10 01:46:58;;;;;;;5.25;1.80;;;19.50;66.20;;;;;;5057118;28;20107;-31
2023/12/10 01:49:28;;;;;;;6.93;2.38;;;;;;;;;;5070562;28;20049;-27
2023/12/10 01:51:55;;;;;;;4.43;1.70;;;19.80;66.50;;;;;;5072268;28;20049;-29
2023/12/10 01:54:24;;;;;;;4.78;1.90;;;19.50;60.00;;;;;;5058221;28;20045;-28
2023/12/10 01:56:51;;;;;;;5.88;2.38;;;19.70;66.50;;;;;;5051976;28;20056;-28
2023/12/10 01:59:18;;;;;;;5.22;1.77;;;19.20;53.60;;;;;;5052315;28;20049;-27
2023/12/10 02:01:46;;;;;;;5.20;1.98;;;;;;;;;;5052611;28;20103;-29
2023/12/10 02:04:13;;;;;;;3.75;1.70;;;19.80;66.70;;;;;;5055079;28;20045;-27
2023/12/10 02:06:40;;;;;;;4.68;1.92;;;19.10;66.80;;;;;;5051971;28;20056;-23
2023/12/10 02:09:09;;;;;;;5.38;2.00;;;20.20;67.10;;;;;;5052250;28;20049;-25
2023/12/10 02:11:37;;;;;;;4.57;1.95;;;20.20;46.90;;;;;;5051974;28;20055;-26
2023/12/10 02:14:04;;;;;;;3.72;1.85;;;19.60;66.70;;;;;;5051840;28;20517;-24
2023/12/10 02:16:31;;;;;;;4.10;1.60;;;19.30;66.80;;;;;;5051723;28;20048;-24
2023/12/10 02:18:58;;;;;;;4.93;1.88;;;19.10;55.70;;;;;;5053046;28;20078;-25
2023/12/10 02:21:25;;;;;;;4.68;1.70;;;;;;;;;;5051476;28;20060;-23
2023/12/10 02:23:56;;;;;;;5.57;2.03;;;19.70;60.90;;;;;;5052117;28;20056;-26
2023/12/10 02:26:24;;;;;;;4.20;1.65;;;19.40;67.60;;;;;;5051670;28;20468;-24
2023/12/10 02:28:51;;;;;;;6.03;2.15;;;;;;;;;;5051795;28;20506;-24
2023/12/10 02:31:19;;;;;;;5.13;2.22;;;19.30;46.60;;;;;;5051492;28;20059;-27
2023/12/10 02:33:46;;;;;;;6.45;2.30;;;19.90;67.40;;;;;;5051655;28;20048;-24
2023/12/10 02:36:13;;;;;;;4.70;1.83;;;19.90;54.60;;;;;;5055305;28;20101;-24
2023/12/10 02:38:40;;;;;;;4.88;2.13;;;19.10;67.00;;;;;;5071605;28;20413;-23
2023/12/10 02:41:07;;;;;;;5.20;1.95;;;19.30;46.70;;;;;;5071851;28;20049;-27
2023/12/10 02:43:35;;;;;;;5.95;1.73;;;19.20;67.90;;;;;;5070704;28;20044;-23
2023/12/10 02:46:02;;;;;;;5.43;1.80;;;18.70;66.90;;;;;;5051187;28;20131;-24
2023/12/10 02:48:29;;;;;;;4.00;1.75;;;19.80;64.50;;;;;;5056301;28;20051;-23
2023/12/10 02:50:56;;;;;;;5.63;1.63;;;19.50;67.60;;;;;;5050756;28;20390;-23
2023/12/10 02:53:23;;;;;;;4.00;1.80;;;19.10;50.20;;;;;;5057436;28;20051;-25
2023/12/10 02:55:51;;;;;;;4.28;2.20;;;18.60;66.90;;;;;;5071298;28;20052;-24
2023/12/10 02:58:19;;;;;;;4.00;1.90;;;;;;;;;;5071455;28;20086;-24
2023/12/10 03:00:47;;;;;;;5.07;1.90;;;19.10;62.10;;;;;;5071152;28;20509;-26
2023/12/10 03:03:14;;;;;;;5.13;1.90;;;20.10;68.10;;;;;;5050632;28;20410;-24
2023/12/10 03:05:41;;;;;;;6.05;2.00;;;19.50;67.90;;;;;;5051131;28;20053;-25
2023/12/10 03:08:08;;;;;;;4.35;1.75;;;19.50;53.20;;;;;;5051369;28;20049;-25
2023/12/10 03:10:34;;;;;;;4.60;1.88;;;19.20;67.50;;;;;;5051460;28;20056;-23
2023/12/10 03:13:02;;;;;;;3.88;1.77;;;;;;;;;;5051376;28;20052;-28
2023/12/10 03:15:29;;;;;;;4.35;1.50;;;19.10;67.40;;;;;;5051303;28;20491;-23
2023/12/10 03:17:57;;;;;;;4.72;1.75;;;19.10;47.00;;;;;;5050528;28;20053;-27
2023/12/10 03:20:24;;;;;;;4.78;1.73;;;19.20;49.50;;;;;;5051166;28;20049;-25
2023/12/10 03:22:51;;;;;;;4.85;2.03;;;19.00;67.80;;;;;;5051190;28;20146;-25
2023/12/10 03:25:18;;;;;;;4.85;1.80;;;;;;;;;;5051331;28;20056;-26
2023/12/10 03:27:45;;;;;;;4.35;1.80;;;;;;;;;;5051004;28;20053;-25
2023/12/10 03:30:12;;;;;;;4.70;1.92;;;19.00;49.90;;;;;;5050751;28;20502;-25
2023/12/10 03:32:39;;;;;;;3.38;1.60;;;17.80;66.80;;;;;;5051372;28;20056;-26
2023/12/10 03:35:08;;;;;;;3.60;1.75;;;19.50;54.20;;;;;;5050870;28;20052;-25
2023/12/10 03:37:35;;;;;;;4.78;1.52;;;19.30;67.80;;;;;;5050559;28;20045;-25
2023/12/10 03:40:03;;;;;;;5.10;1.98;;;;;;;;;;5051027;28;20050;-26
2023/12/10 03:42:30;;;;;;;6.50;2.05;;;;;;;;;;5051069;28;20490;-23
2023/12/10 03:44:57;;;;;;;4.82;1.80;;;18.60;60.50;;;;;;5050839;28;20041;-24
2023/12/10 03:47:24;;;;;;;5.53;1.95;;;19.20;67.80;;;;;;5051062;28;20502;-23
2023/12/10 03:49:51;;;;;;;4.78;2.22;;;19.70;56.40;;;;;;5050808;28;20068;-24
2023/12/10 03:52:19;;;;;;;5.65;1.98;;;19.30;67.90;;;;;;5050390;28;20044;-24
2023/12/10 03:54:46;;;;;;;3.92;1.80;;;;;;;;;;5050967;28;20057;-24
2023/12/10 03:57:13;;;;;;;5.18;2.08;;;18.00;50.40;;;;;;5050463;28;20053;-27
2023/12/10 03:59:40;;;;;;;6.85;2.35;;;19.00;68.30;;;;;;5051057;28;20049;-29
2023/12/10 04:02:07;;;;;;;4.70;1.75;;;19.00;47.30;;;;;;5053215;28;20439;-27
2023/12/10 04:04:34;;;;;;;5.18;2.10;;;18.30;67.90;;;;;;5054654;28;20049;-25
2023/12/10 04:07:01;;;;;;;2.90;1.55;;;;;;;;;;5053912;28;20055;-27
2023/12/10 04:09:30;;;;;;;5.07;1.80;;;18.90;47.20;;;;;;5054177;28;20053;-25
2023/12/10 04:11:57;;;;;;;4.75;1.90;;;18.80;62.50;;;;;;5054309;28;20102;-24
2023/12/10 04:14:24;;;;;;;4.35;1.83;;;18.30;61.10;;;;;;5054347;28;20049;-25
2023/12/10 04:16:50;;;;;;;4.55;1.70;;;18.30;67.70;;;;;;5053954;28;20049;-31
2023/12/10 04:19:18;;;;;;;4.95;1.70;;;;;;;;;;5054143;28;20079;-28
2023/12/10 04:21:45;;;;;;;4.65;1.75;;;18.90;68.40;;;;;;5054318;28;20067;-30
2023/12/10 04:24:12;;;;;;;3.47;1.70;;;;;;;;;;5053166;28;20041;-27
2023/12/10 04:26:40;;;;;;;4.82;1.88;;;19.20;68.50;;;;;;5053210;28;20056;-32
2023/12/10 04:29:07;;;;;;;4.68;1.65;;;19.20;68.20;;;;;;5054132;28;20053;-31
2023/12/10 04:31:34;;;;;;;3.97;1.90;;;18.40;58.60;;;;;;5053952;28;20052;-29
2023/12/10 04:34:01;;;;;;;4.35;1.70;;;;;;;;;;5054137;28;20056;-31
2023/12/10 04:36:28;;;;;;;3.47;1.52;;;18.90;60.00;;;;;;5053042;28;20060;-29
2023/12/10 04:38:55;;;;;;;3.13;1.40;;;19.10;68.00;;;;;;5053687;28;20410;-33
2023/12/10 04:41:22;;;;;;;4.22;1.90;;;;;;;;;;5053534;28;20049;-27
2023/12/10 04:43:52;;;;;;;2.92;1.58;;;19.40;57.50;;;;;;5053705;28;20394;-29
2023/12/10 04:46:19;;;;;;;3.22;1.50;;;19.10;67.90;;;;;;5053637;28;20099;-29
2023/12/10 04:48:46;;;;;;;3.03;1.45;;;;;;;;;;5053561;28;20506;-26
2023/12/10 04:51:14;;;;;;;3.17;1.50;;;;;;;;;;5053497;28;20056;-26
2023/12/10 04:53:40;;;;;;;3.30;1.52;;;19.50;48.00;;;;;;5053398;28;20041;-25
2023/12/10 04:56:08;;;;;;;3.42;1.45;;;19.80;68.40;;;;;;5054268;28;20056;-24
2023/12/10 04:58:35;;;;;;;3.63;1.50;;;19.10;68.00;;;;;;5073416;28;20060;-23
2023/12/10 05:01:05;;;;;;;2.88;1.45;;;19.20;67.70;;;;;;5073310;28;20052;-25
2023/12/10 05:03:32;;;;;;;2.10;1.25;;;19.40;68.10;;;;;;5073431;28;20048;-24
2023/12/10 05:05:59;;;;;;;3.63;1.60;;;;;;;;;;5072746;28;20441;-24
2023/12/10 05:08:26;;;;;;;2.83;1.35;;;19.50;68.10;;;;;;5063094;28;20052;-23
2023/12/10 05:10:53;;;;;;;1.83;1.05;;;18.90;67.40;;;;;;5066944;28;20087;-25
2023/12/10 05:13:19;;;;;;;3.35;1.30;;;19.40;68.10;;;;;;5072511;28;20044;-24
2023/12/10 05:15:46;;;;;;;2.95;1.13;;;19.30;67.70;;;;;;5072687;28;20059;-24
2023/12/10 05:18:15;;;;;;;2.50;1.40;;;19.30;54.90;;;;;;5072909;28;20048;-24
2023/12/10 05:20:42;;;;;;;3.65;1.58;;;18.10;67.50;;;;;;5073191;28;20075;-23
2023/12/10 05:23:09;;;;;;;2.63;1.20;;;18.90;66.10;;;;;;5056990;28;20049;-23
2023/12/10 05:25:36;;;;;;;2.75;1.27;;;18.20;56.50;;;;;;5053058;28;20045;-24
2023/12/10 05:28:04;;;;;;;3.60;1.40;;;19.00;55.30;;;;;;5052534;28;20056;-25
2023/12/10 05:30:31;;;;;;;2.22;1.27;;;;;;;;;;5052981;28;20056;-23
2023/12/10 05:32:58;;;;;;;1.92;1.17;;;18.30;62.50;;;;;;5058740;28;20417;-23
2023/12/10 05:35:26;;;;;;;2.55;1.38;;;18.90;68.20;;;;;;5072673;28;20056;-24
2023/12/10 05:37:53;;;;;;;2.65;1.40;;;18.70;61.20;;;;;;5071322;28;20052;-27
2023/12/10 05:40:20;;;;;;;2.25;1.00;;;18.70;53.40;;;;;;5052599;28;20059;-28
2023/12/10 05:42:47;;;;;;;2.92;1.17;;;18.80;67.70;;;;;;5052450;28;20049;-27
2023/12/10 05:45:14;;;;;;;2.05;1.00;;;;;;;;;;5052573;28;20064;-26
2023/12/10 05:47:41;;;;;;;2.67;1.30;;;18.80;68.70;;;;;;5052285;28;20503;-28
2023/12/10 05:50:09;;;;;;;2.70;1.23;;;19.00;47.20;;;;;;5052785;28;20052;-26
2023/12/10 05:52:38;;;;;;;1.88;1.00;;;21.60;48.70;;;;;;5052123;28;20049;-27
2023/12/10 05:55:06;;;;;;;1.40;1.00;;;18.90;47.20;;;;;;5067667;28;20041;-27
2023/12/10 05:57:33;;;;;;;2.70;1.30;;;;;;;;;;5071772;28;20052;-29
2023/12/10 06:00:00;;;;;;;1.42;0.90;;;19.10;67.90;;;;;;5072186;28;20059;-29
2023/12/10 06:02:27;;;;;;;2.40;1.10;;;18.80;60.60;;;;;;5072394;28;20045;-26
2023/12/10 06:04:54;;;;;;;1.83;1.02;;;18.90;68.10;;;;;;5072088;28;20489;-29
2023/12/10 06:07:21;;;;;;;2.22;1.10;;;;;;;;;;5071666;28;20060;-27
2023/12/10 06:09:49;;;;;;;2.78;1.20;;;17.90;67.70;;;;;;5072045;28;20060;-29
2023/12/10 06:12:16;;;;;;;1.90;1.10;;;18.80;67.70;;;;;;5065538;28;20088;-27
2023/12/10 06:14:43;;;;;;;1.95;1.08;;;19.10;55.30;;;;;;5052347;28;20053;-27
2023/12/10 06:17:10;;;;;;;1.67;0.90;;;18.40;67.90;;;;;;5051781;28;20058;-27
2023/12/10 06:19:37;;;;;;;1.77;0.98;;;19.40;50.80;;;;;;5051590;28;20045;-26
2023/12/10 06:22:04;;;;;;;1.85;1.08;;;19.10;68.20;;;;;;5052089;28;20056;-27
2023/12/10 06:24:31;;;;;;;1.42;1.00;;;19.10;49.60;;;;;;5051043;28;20049;-27
2023/12/10 06:26:59;;;;;;;1.75;1.00;;;19.30;67.80;;;;;;5059492;28;20044;-27
2023/12/10 06:29:26;;;;;;;1.85;1.00;;;18.20;67.30;;;;;;5063572;28;20048;-27
2023/12/10 06:31:54;;;;;;;1.80;0.90;;;;;;;;;;5051987;28;20053;-26
2023/12/10 06:34:21;;;;;;;1.25;0.73;;;19.00;68.00;;;;;;5052100;28;20414;-30
2023/12/10 06:36:48;;;;;;;1.58;0.75;;;18.10;67.00;;;;;;5058969;28;20077;-30
2023/12/10 06:39:16;;;;;;;1.65;0.85;;;;;;;;;;5071609;28;20053;-27
2023/12/10 06:41:43;;;;;;;1.50;0.88;;;18.80;67.30;;;;;;5066091;28;20075;-27
2023/12/10 06:44:14;;;;;;;0.75;0.68;;;18.70;46.70;;;;;;5071769;28;20044;-26
2023/12/10 06:46:42;;;;;;;0.95;0.70;;;;;;;;;;5071730;28;20052;-29
2023/12/10 06:49:09;;;;;;;1.35;0.90;;;18.70;68.00;;;;;;5071610;28;20052;-28
2023/12/10 06:51:36;;;;;;;1.98;0.80;;;;;;;;;;5071505;28;20055;-24
2023/12/10 06:54:03;;;;;;;0.90;0.70;;;;;;;;;;5059873;28;20049;-25
2023/12/10 06:56:30;;;;;;;1.88;0.90;;;;;;;;;;5051759;28;20055;-28
2023/12/10 06:58:58;;;;;;;1.33;0.70;;;;;;;;;;5052055;28;20124;-24
2023/12/10 07:01:26;;;;;;;1.20;0.70;;;19.40;60.90;;;;;;5051313;28;20052;-29
2023/12/10 07:03:53;;;;;;;1.13;0.70;;;19.80;64.20;;;;;;5051785;28;20049;-28
2023/12/10 07:06:21;;;;;;;1.30;0.90;;;19.00;67.50;;;;;;5051023;28;20049;-30
2023/12/10 07:08:48;;;;;;;0.70;0.60;;;19.10;67.40;;;;;;5051454;28;20076;-29
2023/12/10 07:11:15;;;;;;;1.25;0.70;;;19.30;46.60;;;;;;5051191;28;20560;-27
2023/12/10 07:13:41;;;;;;;1.00;0.70;;;19.30;67.30;;;;;;5052686;28;20063;-30
2023/12/10 07:16:09;;;;;;;1.80;0.90;;;19.40;46.50;;;;;;5050901;28;20533;-26
2023/12/10 07:18:37;;;;;;;0.88;0.68;;;19.40;67.40;;;;;;5051556;28;20057;-30
2023/12/10 07:21:05;;;;;;;1.63;0.80;;;19.40;66.90;;;;;;5051290;28;20060;-29
2023/12/10 07:23:32;;;;;;;2.05;0.98;;;19.50;67.20;;;;;;5050962;28;20053;-27
2023/12/10 07:25:59;;;;;;;0.63;0.60;;;19.20;57.20;;;;;;5061604;28;20409;-27
2023/12/10 07:28:26;;;;;;;0.85;0.68;;;19.60;66.90;;;;;;5071376;28;20059;-27
2023/12/10 07:30:53;;;;;;;0.77;0.60;;;;;;;;;;5061748;28;20052;-25
2023/12/10 07:33:21;;;;;;;0.68;0.55;;;20.70;56.50;;;;;;5051036;28;20053;-25
2023/12/10 07:35:49;;;;;;;1.13;0.80;;;19.50;46.30;;;;;;5051646;28;20041;-29
2023/12/10 07:38:16;;;;;;;1.40;0.80;;;19.60;67.10;;;;;;5055203;28;20049;-28
2023/12/10 07:40:43;;;;;;;1.35;0.80;;;;;;;;;;5062537;28;20513;-27
2023/12/10 07:43:10;;;;;;;1.48;0.77;;;19.70;67.10;;;;;;5066135;28;20135;-29
2023/12/10 07:45:38;;;;;;;2.08;1.00;;;;;;;;;;5074647;28;20045;-26
2023/12/10 07:48:05;;;;;;;1.50;0.80;;;19.50;67.00;;;;;;5059230;28;20421;-30
2023/12/10 07:50:33;;;;;;;1.50;1.00;;;;;;;;;;5054632;28;20052;-27
2023/12/10 07:53:01;;;;;;;1.13;0.75;;;19.60;46.10;;;;;;5057530;28;20049;-26
2023/12/10 07:55:28;;;;;;;1.27;0.68;;;;;;;;;;5074499;28;20045;-26
2023/12/10 07:57:55;;;;;;;1.65;0.80;;;19.10;67.20;;;;;;5074317;28;20049;-28
2023/12/10 08:00:22;;;;;;;1.63;0.90;;;19.60;46.10;;;;;;5072803;28;20490;-27
2023/12/10 08:02:49;;;;;;;0.93;0.57;;;;;;;;;;5071323;28;20064;-29
2023/12/10 08:05:16;;;;;;;1.00;0.60;;;19.40;53.40;;;;;;5074496;28;20044;-27
2023/12/10 08:07:43;;;;;;;1.23;0.60;;;19.80;66.90;;;;;;5073875;28;20513;-28
2023/12/10 08:10:11;;;;;;;0.85;0.60;;;19.70;46.00;;;;;;5074526;28;20052;-27
2023/12/10 08:12:38;;;;;;;0.43;0.43;;;20.30;50.00;;;;;;5074393;28;20053;-25
2023/12/10 08:15:06;;;;;;;0.63;0.60;;;19.80;66.80;;;;;;5066055;28;20045;-25
2023/12/10 08:17:33;;;;;;;0.60;0.60;;;19.60;62.00;;;;;;5053831;28;20398;-24
2023/12/10 08:20:00;;;;;;;1.38;0.60;;;19.80;66.90;;;;;;5056805;28;20044;-24
2023/12/10 08:22:27;;;;;;;0.95;0.50;;;19.60;54.30;;;;;;5064086;28;20056;-26
2023/12/10 08:24:54;;;;;;;0.80;0.50;;;19.30;66.60;;;;;;5064841;28;20076;-22
2023/12/10 08:27:22;;;;;;;1.02;0.60;;;19.70;46.00;;;;;;5064231;28;20063;-27
2023/12/10 08:29:49;;;;;;;0.52;0.43;;;20.70;51.90;;;;;;5053696;28;20049;-30
2023/12/10 08:32:16;;;;;;;2.60;0.75;;;;;;;;;;5052730;28;20053;-27
2023/12/10 08:34:43;;;;;;;0.55;0.55;;;20.00;51.90;;;;;;5053398;28;20059;-28
2023/12/10 08:37:10;;;;;;;1.05;0.70;;;19.90;66.60;;;;;;5052734;28;20052;-30
2023/12/10 08:39:37;;;;;;;0.75;0.63;;;;;;;;;;5053107;28;20123;-27
2023/12/10 08:42:04;;;;;;;0.80;0.50;;;19.70;56.70;;;;;;5062607;28;20056;-31
2023/12/10 08:44:33;;;;;;;0.93;0.60;;;19.50;56.30;;;;;;5062046;28;20052;-31
2023/12/10 08:47:00;;;;;;;0.40;0.40;;;;;;;;;;5061457;28;20045;-28
2023/12/10 08:49:27;;;;;;;0.88;0.57;;;;;;;;;;5064101;28;20252;-23
2023/12/10 08:51:54;;;;;;;1.50;0.70;;;;;;;;;;5060997;28;20490;-25
2023/12/10 08:54:22;;;;;;;0.90;0.60;;;19.70;46.00;;;;;;5059340;28;20064;-27
2023/12/10 08:56:49;;;;;;;0.95;0.68;;;;;;;;;;5061993;28;20049;-29
2023/12/10 08:59:16;;;;;;;0.70;0.60;;;19.60;60.30;;;;;;5059570;28;20041;-27
2023/12/10 09:01:44;;;;;;;1.20;0.75;;;19.70;46.30;;;;;;5061873;28;20406;-29
2023/12/10 09:04:11;;;;;;;1.33;0.82;;;19.90;67.10;;;;;;5062474;28;20517;-25
2023/12/10 09:06:38;;;;;;;0.73;0.60;;;;;;;;;;5062122;28;20045;-25
2023/12/10 09:09:06;;;;;;;2.10;0.82;;;;;;;;;;5062204;28;20048;-23
2023/12/10 09:11:33;;;;;;;2.33;0.90;;;20.00;67.10;;;;;;5062278;28;20048;-29
2023/12/10 09:14:00;;;;;;;1.10;0.70;;;;;;;;;;5057947;28;20056;-27
2023/12/10 09:16:27;;;;;;;1.92;0.85;;;19.50;50.80;;;;;;5053240;28;20045;-25
2023/12/10 09:18:55;;;;;;;2.00;1.00;;;20.30;67.30;;;;;;5066781;28;20052;-23
2023/12/10 09:21:22;;;;;;;3.88;1.20;;;20.30;67.30;;;;;;5073056;28;20324;-29
2023/12/10 09:23:49;;;;;;;4.88;1.35;;;19.60;65.20;;;;;;5066985;28;20051;-31
2023/12/10 09:26:15;;;;;;;1.73;1.00;;;19.80;67.20;;;;;;5071219;28;20067;-29
2023/12/10 09:28:42;;;;;;;3.28;1.20;;;20.10;66.90;;;;;;5072599;28;20044;-30
2023/12/10 09:31:09;;;;;;;2.30;1.15;;;;;;;;;;5071602;28;20059;-27
2023/12/10 09:33:36;;;;;;;3.45;1.25;;;19.80;66.80;;;;;;5072676;28;20055;-24
2023/12/10 09:36:04;;;;;;;3.35;1.10;;;20.10;46.40;;;;;;5070094;28;20048;-28
2023/12/10 09:38:31;;;;;;;2.70;1.10;;;20.90;53.70;;;;;;5071129;28;20045;-30
2023/12/10 09:40:59;;;;;;;2.30;1.08;;;;;;;;;;5070589;28;20174;-30
2023/12/10 09:43:26;;;;;;;2.10;1.10;;;20.60;67.10;;;;;;5056698;28;20052;-28
2023/12/10 09:45:53;;;;;;;2.10;1.13;;;;;;;;;;5050751;28;20048;-28
2023/12/10 09:48:20;;;;;;;2.70;1.15;;;19.80;50.90;;;;;;5050645;28;20577;-25
2023/12/10 09:50:47;;;;;;;1.60;0.98;;;;;;;;;;5052193;28;20045;-25
2023/12/10 09:53:16;;;;;;;3.47;1.40;;;20.20;66.40;;;;;;5056802;28;20048;-24
2023/12/10 09:55:43;;;;;;;3.65;1.40;;;;;;;;;;5072403;28;20044;-25
2023/12/10 09:58:10;;;;;;;4.03;1.48;;;20.10;66.70;;;;;;5071188;28;20090;-29
2023/12/10 10:00:37;;;;;;;2.72;1.10;;;;;;;;;;5052195;28;20155;-30
2023/12/10 10:03:05;;;;;;;1.90;1.00;;;20.60;66.40;;;;;;5052556;28;20183;-30
2023/12/10 10:05:34;;;;;;;3.08;1.20;;;19.80;63.60;;;;;;5052125;28;20080;-27
2023/12/10 10:08:01;;;;;;;2.88;1.15;;;20.00;66.40;;;;;;5052399;28;20056;-23
2023/12/10 10:10:29;;;;;;;5.43;1.38;;;20.30;46.10;;;;;;5052477;28;20052;-26
2023/12/10 10:12:56;;;;;;;2.95;1.15;;;20.10;56.70;;;;;;5052039;28;20052;-24
2023/12/10 10:15:28;;;;;;;2.50;1.05;;;20.10;66.00;;;;;;5060491;28;20049;-24
2023/12/10 10:17:55;;;;;;;2.30;1.20;;;20.20;60.10;;;;;;5051883;28;20057;-27
2023/12/10 10:20:22;;;;;;;2.50;1.10;;;20.50;46.90;;;;;;5052073;28;20452;-27
2023/12/10 10:22:49;;;;;;;3.08;1.30;;;20.90;66.30;;;;;;5052320;28;20053;-25
2023/12/10 10:25:16;;;;;;;2.83;1.30;;;;;;;;;;5052146;28;20056;-25
2023/12/10 10:27:45;;;;;;;3.65;1.38;;;20.10;66.40;;;;;;5051589;28;20512;-25
2023/12/10 10:30:12;;;;;;;2.67;1.25;;;20.70;62.10;;;;;;5051945;28;20060;-25
2023/12/10 10:32:39;;;;;;;2.75;1.17;;;;;;;;;;5067927;28;20064;-25
2023/12/10 10:35:08;;;;;;;2.03;1.00;;;20.40;46.00;;;;;;5071895;28;20052;-26
2023/12/10 10:37:35;;;;;;;2.58;1.20;;;;;;;;;;5071323;28;20048;-27
2023/12/10 10:40:04;;;;;;;3.35;1.40;;;20.40;46.00;;;;;;5071764;28;20056;-26
2023/12/10 10:42:31;;;;;;;3.42;1.30;;;;;;;;;;5072000;28;20060;-27
2023/12/10 10:45:00;;;;;;;1.55;0.85;;;20.10;62.00;;;;;;5071640;28;20060;-27
2023/12/10 10:47:27;;;;;;;2.42;1.08;;;20.80;66.20;;;;;;5065698;28;20049;-23
2023/12/10 10:49:55;;;;;;;5.00;1.45;;;20.20;66.40;;;;;;5070338;28;20052;-24
2023/12/10 10:52:23;;;;;;;2.92;1.20;;;20.40;66.60;;;;;;5071899;28;20045;-24
2023/12/10 10:54:53;;;;;;;3.42;1.35;;;20.10;66.50;;;;;;5053526;28;20490;-26
2023/12/10 10:57:28;;;;;;;3.42;1.20;;;20.20;66.10;;;;;;5051686;28;20049;-29
2023/12/10 10:59:55;;;;;;;1.73;1.10;;;20.60;55.10;;;;;;5051425;28;20526;-30
2023/12/10 11:02:24;;;;;;;3.53;1.30;;;20.70;66.50;;;;;;5051362;28;20060;-30
2023/12/10 11:04:51;;;;;;;2.42;1.10;;;;;;;;;;5052723;28;20068;-29
2023/12/10 11:07:19;;;;;;;2.80;1.23;;;20.60;66.30;;;;;;5051156;28;20513;-30
2023/12/10 11:09:57;;;;;;;2.05;1.20;;;20.10;66.10;;;;;;5051539;28;20057;-27
2023/12/10 11:12:45;;;;;;;2.58;1.20;;;20.40;46.20;;;;;;5074740;28;20503;-28
2023/12/10 11:15:22;;;;;;;3.03;1.55;;;20.30;46.20;;;;;;5075839;28;20123;-27
2023/12/10 11:17:52;;;;;;;3.45;1.30;;;20.60;66.40;;;;;;5075184;28;20072;-24
2023/12/10 11:20:32;;;;;;;4.05;1.75;;;20.30;46.20;;;;;;5074724;28;20059;-23
2023/12/10 11:22:59;;;;;;;2.13;1.30;;;20.60;66.60;;;;;;5054997;28;20049;-24
2023/12/10 11:25:28;;;;;;;2.75;1.30;;;19.70;54.90;;;;;;5055667;28;20053;-24
2023/12/10 11:27:55;;;;;;;2.50;1.10;;;19.80;64.60;;;;;;5054988;28;20052;-24
2023/12/10 11:30:22;;;;;;;3.55;1.33;;;;;;;;;;5055110;28;20510;-26
2023/12/10 11:32:49;;;;;;;3.50;1.65;;;;;;;;;;5055300;28;20052;-29
2023/12/10 11:35:18;;;;;;;5.30;1.80;;;20.20;46.30;;;;;;5054925;28;20498;-27
2023/12/10 11:37:45;;;;;;;3.20;1.40;;;20.30;62.70;;;;;;5063371;28;20072;-25
2023/12/10 11:40:12;;;;;;;4.35;1.65;;;20.60;51.30;;;;;;5054906;28;20049;-25
2023/12/10 11:42:39;;;;;;;2.97;1.40;;;20.00;48.90;;;;;;5055271;28;20048;-25
2023/12/10 11:45:07;;;;;;;2.85;1.30;;;20.00;66.70;;;;;;5055117;28;20083;-31
2023/12/10 11:47:34;;;;;;;3.53;1.40;;;20.40;66.60;;;;;;5054592;28;20048;-30
2023/12/10 11:50:01;;;;;;;3.95;1.60;;;;;;;;;;5054615;28;20053;-30
2023/12/10 11:52:31;;;;;;;3.75;1.35;;;20.20;66.90;;;;;;5054920;28;20052;-29
2023/12/10 11:54:58;;;;;;;4.70;1.80;;;20.60;67.10;;;;;;5059578;28;20048;-33
2023/12/10 11:57:25;;;;;;;4.53;1.90;;;20.50;64.20;;;;;;5054561;28;20536;-31
2023/12/10 11:59:52;;;;;;;3.42;1.50;;;20.40;66.70;;;;;;5054442;28;20053;-31
2023/12/10 12:02:19;;;;;;;4.60;1.77;;;20.80;47.00;;;;;;5054657;28;20053;-28
2023/12/10 12:04:46;;;;;;;4.22;1.55;;;20.60;67.00;;;;;;5054595;28;20057;-30
2023/12/10 12:07:29;;;;;;;4.53;1.80;;;20.20;46.40;;;;;;5064483;28;20041;-28
2023/12/10 12:09:56;;;;;;;3.63;1.52;;;20.20;46.40;;;;;;5071886;28;20056;-26
2023/12/10 12:12:23;;;;;;;5.43;1.80;;;;;;;;;;5055738;28;20045;-26
2023/12/10 12:14:51;;;;;;;4.00;1.60;;;20.00;66.80;;;;;;5054478;28;20053;-26
2023/12/10 12:17:19;;;;;;;5.65;1.60;;;19.80;54.60;;;;;;5054117;28;20049;-27
2023/12/10 12:19:46;;;;;;;4.68;1.70;;;20.70;60.90;;;;;;5054252;28;20060;-27
2023/12/10 12:22:13;;;;;;;4.55;2.05;;;20.40;66.60;;;;;;5054500;28;20049;-31
2023/12/10 12:24:43;;;;;;;4.82;1.48;;;19.90;65.10;;;;;;5054192;28;20053;-28
2023/12/10 12:27:10;;;;;;;3.30;1.50;;;20.10;46.40;;;;;;5055085;28;20483;-29
2023/12/10 12:29:37;;;;;;;5.15;1.92;;;;;;;;;;5053635;28;20434;-28
2023/12/10 12:32:05;;;;;;;4.78;1.77;;;20.10;53.00;;;;;;5054304;28;20060;-26
2023/12/10 12:34:32;;;;;;;3.97;1.67;;;19.70;66.30;;;;;;5053926;28;20529;-31
2023/12/10 12:36:59;;;;;;;4.68;1.50;;;19.50;66.50;;;;;;5062586;28;20044;-27
2023/12/10 12:39:26;;;;;;;4.15;1.80;;;19.70;66.70;;;;;;5073972;28;20060;-25
2023/12/10 12:41:54;;;;;;;4.75;1.70;;;20.60;57.30;;;;;;5073895;28;20060;-24
2023/12/10 12:44:21;;;;;;;3.67;1.50;;;20.70;66.60;;;;;;5065091;28;20049;-24
2023/12/10 12:46:48;;;;;;;4.55;1.70;;;;;;;;;;5053163;28;20493;-24
2023/12/10 12:49:15;;;;;;;3.67;1.85;;;20.20;65.20;;;;;;5053730;28;20049;-24
2023/12/10 12:51:42;;;;;;;4.63;1.65;;;20.60;67.30;;;;;;5055013;28;20053;-30
2023/12/10 12:54:09;;;;;;;6.03;1.65;;;22.60;47.90;;;;;;5061531;28;20056;-27
2023/12/10 12:56:37;;;;;;;4.70;1.88;;;;;;;;;;5021260;28;20047;-24
2023/12/10 12:59:05;;;;;;;4.85;1.70;;;20.20;46.50;;;;;;4933504;28;20053;-24
2023/12/10 13:01:32;;;;;;;2.58;1.50;;;19.60;66.30;;;;;;4977617;28;20056;-29
2023/12/10 13:03:59;;;;;;;4.57;1.77;;;;;;;;;;5068352;28;20075;-28
2023/12/10 13:06:26;;;;;;;5.35;1.58;;;20.10;66.90;;;;;;5064988;28;20409;-28
2023/12/10 13:08:53;;;;;;;3.67;1.77;;;;;;;;;;5058521;28;20049;-26
2023/12/10 13:11:20;;;;;;;6.35;2.20;;;20.60;66.70;;;;;;5058221;28;20072;-27
2023/12/10 13:13:47;;;;;;;4.72;2.22;;;;;;;;;;5052359;28;20049;-29